sensor_id;sensor_type;location;lat;lon;timestamp;pressure;altitude;pressure_sealevel;temperature;humidity
20115;BME280;10218;42.874;25.320;2023-02-28T00:00:37;97838.50;;;8.89;100.00
20115;BME280;10218;42.874;25.320;2023-02-28T00:03:04;97846.06;;;8.84;100.00
20115;BME280;10218;42.874;25.320;2023-02-28T00:05:32;97836.78;;;8.51;100.00
20115;BME280;10218;42.874;25.320;2023-02-28T00:07:59;97844.34;;;8.55;100.00
20115;BME280;10218;42.874;25.320;2023-02-28T00:10:29;97849.41;;;8.39;100.00
20115;BME280;10218;42.874;25.320;2023-02-28T00:13:00;97849.47;;;8.76;100.00
20115;BME280;10218;42.874;25.320;2023-02-28T00:15:28;97845.66;;;8.79;100.00
20115;BME280;10218;42.874;25.320;2023-02-28T00:17:55;97848.00;;;9.01;100.00
20115;BME280;10218;42.874;25.320;2023-02-28T00:20:22;97861.53;;;8.80;100.00
20115;BME280;10218;42.874;25.320;2023-02-28T00:22:51;97857.16;;;8.79;100.00
20115;BME280;10218;42.874;25.320;2023-02-28T00:25:22;97857.38;;;8.68;100.00
20115;BME280;10218;42.874;25.320;2023-02-28T00:27:50;97860.94;;;8.86;100.00
20115;BME280;10218;42.874;25.320;2023-02-28T00:30:19;97857.56;;;8.84;100.00
20115;BME280;10218;42.874;25.320;2023-02-28T00:32:47;97854.91;;;9.31;100.00
20115;BME280;10218;42.874;25.320;2023-02-28T00:35:14;97851.06;;;9.43;100.00
20115;BME280;10218;42.874;25.320;2023-02-28T00:37:42;97850.59;;;9.20;100.00
20115;BME280;10218;42.874;25.320;2023-02-28T00:40:10;97854.31;;;9.37;100.00
20115;BME280;10218;42.874;25.320;2023-02-28T00:42:38;97858.34;;;9.04;100.00
20115;BME280;10218;42.874;25.320;2023-02-28T00:45:07;97865.44;;;8.86;100.00
20115;BME280;10218;42.874;25.320;2023-02-28T00:47:37;97857.94;;;9.09;100.00
20115;BME280;10218;42.874;25.320;2023-02-28T00:50:04;97857.41;;;8.95;100.00
20115;BME280;10218;42.874;25.320;2023-02-28T00:52:31;97855.09;;;8.83;100.00
20115;BME280;10218;42.874;25.320;2023-02-28T00:54:58;97855.66;;;9.23;100.00
20115;BME280;10218;42.874;25.320;2023-02-28T00:57:26;97849.59;;;9.21;100.00
20115;BME280;10218;42.874;25.320;2023-02-28T00:59:53;97839.19;;;9.28;100.00
20115;BME280;10218;42.874;25.320;2023-02-28T01:02:23;97836.81;;;9.25;100.00
20115;BME280;10218;42.874;25.320;2023-02-28T01:04:51;97830.72;;;9.05;100.00
20115;BME280;10218;42.874;25.320;2023-02-28T01:07:18;97836.34;;;8.55;100.00
20115;BME280;10218;42.874;25.320;2023-02-28T01:09:45;97827.22;;;9.05;100.00
20115;BME280;10218;42.874;25.320;2023-02-28T01:12:13;97824.09;;;9.19;100.00
20115;BME280;10218;42.874;25.320;2023-02-28T01:14:40;97822.75;;;9.32;100.00
20115;BME280;10218;42.874;25.320;2023-02-28T01:17:07;97806.87;;;9.58;100.00
20115;BME280;10218;42.874;25.320;2023-02-28T01:19:36;97792.66;;;8.85;100.00
20115;BME280;10218;42.874;25.320;2023-02-28T01:22:04;97813.09;;;8.94;100.00
20115;BME280;10218;42.874;25.320;2023-02-28T01:24:33;97814.56;;;8.70;100.00
20115;BME280;10218;42.874;25.320;2023-02-28T01:27:01;97828.97;;;8.86;100.00
20115;BME280;10218;42.874;25.320;2023-02-28T01:29:28;97825.66;;;9.12;100.00
20115;BME280;10218;42.874;25.320;2023-02-28T01:31:55;97824.03;;;9.28;100.00
20115;BME280;10218;42.874;25.320;2023-02-28T01:34:22;97819.84;;;9.26;100.00
20115;BME280;10218;42.874;25.320;2023-02-28T01:36:50;97820.00;;;9.24;100.00
20115;BME280;10218;42.874;25.320;2023-02-28T01:39:18;97834.19;;;8.78;100.00
20115;BME280;10218;42.874;25.320;2023-02-28T01:41:45;97821.31;;;9.11;100.00
20115;BME280;10218;42.874;25.320;2023-02-28T01:47:17;97827.19;;;9.14;100.00
20115;BME280;10218;42.874;25.320;2023-02-28T01:49:44;97836.94;;;9.33;100.00
20115;BME280;10218;42.874;25.320;2023-02-28T01:52:12;97823.47;;;9.79;100.00
20115;BME280;10218;42.874;25.320;2023-02-28T01:54:51;97821.37;;;9.28;100.00
20115;BME280;10218;42.874;25.320;2023-02-28T01:57:23;97819.44;;;9.21;100.00
20115;BME280;10218;42.874;25.320;2023-02-28T02:00:00;97833.16;;;8.98;100.00
20115;BME280;10218;42.874;25.320;2023-02-28T02:02:38;97841.41;;;9.32;100.00
20115;BME280;10218;42.874;25.320;2023-02-28T02:05:09;97845.06;;;9.31;100.00
20115;BME280;10218;42.874;25.320;2023-02-28T02:07:41;97857.53;;;9.04;100.00
20115;BME280;10218;42.874;25.320;2023-02-28T02:10:19;97840.00;;;9.01;100.00
20115;BME280;10218;42.874;25.320;2023-02-28T02:19:02;97877.56;;;8.42;100.00
20115;BME280;10218;42.874;25.320;2023-02-28T02:30:38;97895.19;;;8.81;100.00
20115;BME280;10218;42.874;25.320;2023-02-28T02:36:00;97900.81;;;8.40;100.00
20115;BME280;10218;42.874;25.320;2023-02-28T02:38:53;97908.94;;;8.38;100.00
20115;BME280;10218;42.874;25.320;2023-02-28T02:42:08;97905.44;;;8.67;100.00
20115;BME280;10218;42.874;25.320;2023-02-28T02:44:21;97903.59;;;8.86;100.00
20115;BME280;10218;42.874;25.320;2023-02-28T02:46:55;97906.50;;;9.02;100.00
20115;BME280;10218;42.874;25.320;2023-02-28T02:49:31;97906.13;;;9.25;100.00
20115;BME280;10218;42.874;25.320;2023-02-28T02:52:05;97903.84;;;9.02;100.00
20115;BME280;10218;42.874;25.320;2023-02-28T02:54:36;97895.50;;;9.52;100.00
20115;BME280;10218;42.874;25.320;2023-02-28T02:57:07;97907.88;;;9.07;100.00
20115;BME280;10218;42.874;25.320;2023-02-28T02:59:39;97904.53;;;9.41;100.00
20115;BME280;10218;42.874;25.320;2023-02-28T03:02:11;97905.59;;;9.21;100.00
20115;BME280;10218;42.874;25.320;2023-02-28T03:04:46;97899.50;;;9.38;100.00
20115;BME280;10218;42.874;25.320;2023-02-28T03:07:15;97906.03;;;9.17;100.00
20115;BME280;10218;42.874;25.320;2023-02-28T03:09:53;97901.03;;;9.41;100.00
20115;BME280;10218;42.874;25.320;2023-02-28T03:12:24;97910.81;;;9.13;100.00
20115;BME280;10218;42.874;25.320;2023-02-28T03:15:20;97910.78;;;9.23;100.00
20115;BME280;10218;42.874;25.320;2023-02-28T03:18:24;97916.12;;;8.57;100.00
20115;BME280;10218;42.874;25.320;2023-02-28T03:21:23;97905.53;;;8.84;100.00
20115;BME280;10218;42.874;25.320;2023-02-28T03:24:11;97882.87;;;9.17;100.00
20115;BME280;10218;42.874;25.320;2023-02-28T03:26:45;97882.25;;;9.33;100.00
20115;BME280;10218;42.874;25.320;2023-02-28T03:29:58;97880.47;;;9.24;100.00
20115;BME280;10218;42.874;25.320;2023-02-28T03:32:38;97878.72;;;9.42;100.00
20115;BME280;10218;42.874;25.320;2023-02-28T03:35:20;97876.81;;;9.25;100.00
20115;BME280;10218;42.874;25.320;2023-02-28T03:37:56;97869.66;;;8.88;100.00
20115;BME280;10218;42.874;25.320;2023-02-28T03:40:30;97883.44;;;8.65;100.00
20115;BME280;10218;42.874;25.320;2023-02-28T03:43:03;97877.75;;;8.96;100.00
20115;BME280;10218;42.874;25.320;2023-02-28T03:45:33;97872.38;;;9.06;100.00
20115;BME280;10218;42.874;25.320;2023-02-28T03:48:17;97874.72;;;8.72;100.00
20115;BME280;10218;42.874;25.320;2023-02-28T03:50:49;97879.19;;;8.81;100.00
20115;BME280;10218;42.874;25.320;2023-02-28T03:55:49;97884.88;;;9.06;100.00
20115;BME280;10218;42.874;25.320;2023-02-28T04:00:48;97878.09;;;9.21;100.00
20115;BME280;10218;42.874;25.320;2023-02-28T04:03:17;97881.44;;;8.86;100.00
20115;BME280;10218;42.874;25.320;2023-02-28T04:05:48;97903.72;;;8.85;100.00
20115;BME280;10218;42.874;25.320;2023-02-28T04:08:16;97904.84;;;8.15;100.00
20115;BME280;10218;42.874;25.320;2023-02-28T04:10:46;97905.03;;;8.52;100.00
20115;BME280;10218;42.874;25.320;2023-02-28T04:13:16;97900.22;;;8.84;100.00
20115;BME280;10218;42.874;25.320;2023-02-28T04:15:43;97892.19;;;9.04;100.00
20115;BME280;10218;42.874;25.320;2023-02-28T04:18:10;97890.53;;;9.39;100.00
20115;BME280;10218;42.874;25.320;2023-02-28T04:20:37;97895.25;;;9.45;100.00
20115;BME280;10218;42.874;25.320;2023-02-28T04:23:04;97893.03;;;9.41;100.00
20115;BME280;10218;42.874;25.320;2023-02-28T04:25:31;97891.34;;;9.40;100.00
20115;BME280;10218;42.874;25.320;2023-02-28T04:27:58;97892.19;;;9.40;100.00
20115;BME280;10218;42.874;25.320;2023-02-28T04:30:25;97892.75;;;9.44;100.00
20115;BME280;10218;42.874;25.320;2023-02-28T04:32:52;97892.00;;;9.52;100.00
20115;BME280;10218;42.874;25.320;2023-02-28T04:35:19;97890.97;;;9.62;100.00
20115;BME280;10218;42.874;25.320;2023-02-28T04:37:46;97892.22;;;9.85;100.00
20115;BME280;10218;42.874;25.320;2023-02-28T04:40:13;97887.81;;;9.49;100.00
20115;BME280;10218;42.874;25.320;2023-02-28T04:42:40;97884.31;;;9.49;100.00
20115;BME280;10218;42.874;25.320;2023-02-28T04:45:08;97883.47;;;9.48;100.00
20115;BME280;10218;42.874;25.320;2023-02-28T04:47:36;97890.25;;;9.60;100.00
20115;BME280;10218;42.874;25.320;2023-02-28T04:50:04;97887.31;;;9.63;100.00
20115;BME280;10218;42.874;25.320;2023-02-28T04:52:31;97886.50;;;9.80;100.00
20115;BME280;10218;42.874;25.320;2023-02-28T04:54:58;97889.13;;;10.08;100.00
20115;BME280;10218;42.874;25.320;2023-02-28T04:57:25;97892.97;;;10.05;100.00
20115;BME280;10218;42.874;25.320;2023-02-28T04:59:52;97892.84;;;9.79;100.00
20115;BME280;10218;42.874;25.320;2023-02-28T05:02:19;97886.84;;;9.40;100.00
20115;BME280;10218;42.874;25.320;2023-02-28T05:04:47;97896.50;;;9.51;100.00
20115;BME280;10218;42.874;25.320;2023-02-28T05:07:15;97902.56;;;9.07;100.00
20115;BME280;10218;42.874;25.320;2023-02-28T05:09:42;97899.06;;;8.96;100.00
20115;BME280;10218;42.874;25.320;2023-02-28T05:12:09;97890.91;;;9.44;100.00
20115;BME280;10218;42.874;25.320;2023-02-28T05:14:36;97886.91;;;9.58;100.00
20115;BME280;10218;42.874;25.320;2023-02-28T05:17:03;97886.34;;;9.82;100.00
20115;BME280;10218;42.874;25.320;2023-02-28T05:19:30;97900.94;;;9.33;100.00
20115;BME280;10218;42.874;25.320;2023-02-28T05:21:57;97892.78;;;9.34;100.00
20115;BME280;10218;42.874;25.320;2023-02-28T05:24:24;97902.78;;;8.67;100.00
20115;BME280;10218;42.874;25.320;2023-02-28T05:26:53;97913.16;;;8.60;100.00
20115;BME280;10218;42.874;25.320;2023-02-28T05:29:21;97910.88;;;8.75;100.00
20115;BME280;10218;42.874;25.320;2023-02-28T05:31:48;97900.41;;;9.20;100.00
20115;BME280;10218;42.874;25.320;2023-02-28T05:34:15;97911.59;;;9.33;100.00
20115;BME280;10218;42.874;25.320;2023-02-28T05:36:43;97908.44;;;9.47;100.00
20115;BME280;10218;42.874;25.320;2023-02-28T05:39:10;97909.91;;;9.32;100.00
20115;BME280;10218;42.874;25.320;2023-02-28T05:41:41;97923.06;;;8.96;100.00
20115;BME280;10218;42.874;25.320;2023-02-28T05:44:09;97871.69;;;9.41;100.00
20115;BME280;10218;42.874;25.320;2023-02-28T05:46:36;97917.56;;;9.54;100.00
20115;BME280;10218;42.874;25.320;2023-02-28T05:49:04;97925.47;;;8.80;100.00
20115;BME280;10218;42.874;25.320;2023-02-28T05:51:31;97918.84;;;9.40;100.00
20115;BME280;10218;42.874;25.320;2023-02-28T05:53:59;97921.38;;;9.42;100.00
20115;BME280;10218;42.874;25.320;2023-02-28T05:56:27;97915.56;;;9.10;100.00
20115;BME280;10218;42.874;25.320;2023-02-28T05:58:54;97929.41;;;8.76;100.00
20115;BME280;10218;42.874;25.320;2023-02-28T06:03:52;97932.59;;;9.09;100.00
20115;BME280;10218;42.874;25.320;2023-02-28T06:06:19;97931.03;;;9.06;100.00
20115;BME280;10218;42.874;25.320;2023-02-28T06:08:45;97941.00;;;9.14;100.00
20115;BME280;10218;42.874;25.320;2023-02-28T06:11:13;97946.00;;;9.26;100.00
20115;BME280;10218;42.874;25.320;2023-02-28T06:13:40;97937.91;;;9.45;100.00
20115;BME280;10218;42.874;25.320;2023-02-28T06:16:10;97955.91;;;9.43;100.00
20115;BME280;10218;42.874;25.320;2023-02-28T06:18:38;97956.19;;;9.40;100.00
20115;BME280;10218;42.874;25.320;2023-02-28T06:21:05;97942.91;;;10.13;100.00
20115;BME280;10218;42.874;25.320;2023-02-28T06:23:32;97952.03;;;9.93;100.00
20115;BME280;10218;42.874;25.320;2023-02-28T06:25:59;97946.25;;;9.97;100.00
20115;BME280;10218;42.874;25.320;2023-02-28T06:28:27;97957.41;;;9.19;100.00
20115;BME280;10218;42.874;25.320;2023-02-28T06:30:53;97958.91;;;9.21;100.00
20115;BME280;10218;42.874;25.320;2023-02-28T06:33:21;97956.59;;;8.70;100.00
20115;BME280;10218;42.874;25.320;2023-02-28T06:35:51;97959.25;;;8.80;100.00
20115;BME280;10218;42.874;25.320;2023-02-28T06:38:19;97972.22;;;9.31;100.00
20115;BME280;10218;42.874;25.320;2023-02-28T06:40:56;97960.31;;;9.62;100.00
20115;BME280;10218;42.874;25.320;2023-02-28T06:43:23;97967.44;;;9.25;100.00
20115;BME280;10218;42.874;25.320;2023-02-28T06:45:55;97976.91;;;9.19;100.00
20115;BME280;10218;42.874;25.320;2023-02-28T06:48:23;97967.69;;;9.41;100.00
20115;BME280;10218;42.874;25.320;2023-02-28T06:50:50;97964.09;;;9.97;100.00
20115;BME280;10218;42.874;25.320;2023-02-28T06:53:18;97975.34;;;9.91;100.00
20115;BME280;10218;42.874;25.320;2023-02-28T06:55:45;97963.03;;;9.90;100.00
20115;BME280;10218;42.874;25.320;2023-02-28T06:58:12;97968.47;;;9.24;100.00
20115;BME280;10218;42.874;25.320;2023-02-28T07:00:42;97967.44;;;9.71;100.00
20115;BME280;10218;42.874;25.320;2023-02-28T07:03:11;97954.59;;;9.57;100.00
20115;BME280;10218;42.874;25.320;2023-02-28T07:05:39;97956.94;;;9.60;100.00
20115;BME280;10218;42.874;25.320;2023-02-28T07:08:06;97954.31;;;9.87;100.00
20115;BME280;10218;42.874;25.320;2023-02-28T07:10:33;97952.97;;;9.74;100.00
20115;BME280;10218;42.874;25.320;2023-02-28T07:13:01;97955.28;;;9.86;100.00
20115;BME280;10218;42.874;25.320;2023-02-28T07:15:28;97951.59;;;9.97;100.00
20115;BME280;10218;42.874;25.320;2023-02-28T07:17:55;97953.59;;;9.58;100.00
20115;BME280;10218;42.874;25.320;2023-02-28T07:20:23;97951.25;;;9.82;100.00
20115;BME280;10218;42.874;25.320;2023-02-28T07:22:51;97952.09;;;10.10;100.00
20115;BME280;10218;42.874;25.320;2023-02-28T07:25:23;97949.94;;;10.41;100.00
20115;BME280;10218;42.874;25.320;2023-02-28T07:27:51;97958.84;;;9.40;100.00
20115;BME280;10218;42.874;25.320;2023-02-28T07:30:18;97960.63;;;9.59;100.00
20115;BME280;10218;42.874;25.320;2023-02-28T07:32:46;97971.97;;;9.61;100.00
20115;BME280;10218;42.874;25.320;2023-02-28T07:35:13;97971.34;;;9.50;100.00
20115;BME280;10218;42.874;25.320;2023-02-28T07:37:42;97961.06;;;9.82;100.00
20115;BME280;10218;42.874;25.320;2023-02-28T07:40:10;97958.75;;;9.97;100.00
20115;BME280;10218;42.874;25.320;2023-02-28T07:42:41;97967.13;;;10.56;100.00
20115;BME280;10218;42.874;25.320;2023-02-28T07:45:09;97970.78;;;10.10;100.00
20115;BME280;10218;42.874;25.320;2023-02-28T07:47:38;97965.69;;;9.90;100.00
20115;BME280;10218;42.874;25.320;2023-02-28T07:50:07;97972.84;;;9.89;100.00
20115;BME280;10218;42.874;25.320;2023-02-28T07:52:36;97979.59;;;10.20;100.00
20115;BME280;10218;42.874;25.320;2023-02-28T07:55:04;97975.28;;;10.10;100.00
20115;BME280;10218;42.874;25.320;2023-02-28T07:57:32;97987.31;;;10.23;100.00
20115;BME280;10218;42.874;25.320;2023-02-28T08:00:06;97990.09;;;9.95;100.00
20115;BME280;10218;42.874;25.320;2023-02-28T08:02:37;97985.12;;;10.54;100.00
20115;BME280;10218;42.874;25.320;2023-02-28T08:05:05;97981.44;;;9.83;100.00
20115;BME280;10218;42.874;25.320;2023-02-28T08:07:32;97997.75;;;10.07;100.00
20115;BME280;10218;42.874;25.320;2023-02-28T08:10:00;97995.66;;;10.73;100.00
20115;BME280;10218;42.874;25.320;2023-02-28T08:12:27;97975.56;;;10.07;100.00
20115;BME280;10218;42.874;25.320;2023-02-28T08:14:54;97985.34;;;10.43;100.00
20115;BME280;10218;42.874;25.320;2023-02-28T08:17:21;97984.94;;;10.11;100.00
20115;BME280;10218;42.874;25.320;2023-02-28T08:19:48;97984.31;;;9.99;100.00
20115;BME280;10218;42.874;25.320;2023-02-28T08:22:15;97982.66;;;10.43;100.00
20115;BME280;10218;42.874;25.320;2023-02-28T08:24:43;97986.88;;;10.63;100.00
20115;BME280;10218;42.874;25.320;2023-02-28T08:27:10;97981.06;;;10.33;100.00
20115;BME280;10218;42.874;25.320;2023-02-28T08:29:38;97988.22;;;10.32;100.00
20115;BME280;10218;42.874;25.320;2023-02-28T08:32:06;97994.84;;;9.73;100.00
20115;BME280;10218;42.874;25.320;2023-02-28T08:34:40;97993.31;;;9.61;100.00
20115;BME280;10218;42.874;25.320;2023-02-28T08:37:07;97997.66;;;9.62;100.00
20115;BME280;10218;42.874;25.320;2023-02-28T08:39:35;97993.78;;;10.11;100.00
20115;BME280;10218;42.874;25.320;2023-02-28T08:42:04;97982.94;;;10.22;100.00
20115;BME280;10218;42.874;25.320;2023-02-28T08:44:33;97989.75;;;10.07;100.00
20115;BME280;10218;42.874;25.320;2023-02-28T08:47:00;97996.69;;;9.91;100.00
20115;BME280;10218;42.874;25.320;2023-02-28T08:49:27;98002.13;;;9.71;100.00
20115;BME280;10218;42.874;25.320;2023-02-28T08:51:55;97998.56;;;9.90;100.00
20115;BME280;10218;42.874;25.320;2023-02-28T08:54:26;97998.38;;;9.64;100.00
20115;BME280;10218;42.874;25.320;2023-02-28T08:56:57;98004.00;;;9.98;100.00
20115;BME280;10218;42.874;25.320;2023-02-28T08:59:24;98005.50;;;9.73;100.00
20115;BME280;10218;42.874;25.320;2023-02-28T09:01:51;97998.75;;;9.79;100.00
20115;BME280;10218;42.874;25.320;2023-02-28T09:04:18;98008.84;;;9.85;100.00
20115;BME280;10218;42.874;25.320;2023-02-28T09:06:46;98023.84;;;9.49;100.00
20115;BME280;10218;42.874;25.320;2023-02-28T09:09:12;98009.66;;;10.13;100.00
20115;BME280;10218;42.874;25.320;2023-02-28T09:11:40;98010.38;;;10.42;100.00
20115;BME280;10218;42.874;25.320;2023-02-28T09:14:07;98020.97;;;10.34;100.00
20115;BME280;10218;42.874;25.320;2023-02-28T09:16:34;98013.50;;;10.10;100.00
20115;BME280;10218;42.874;25.320;2023-02-28T09:19:02;98019.34;;;9.86;100.00
20115;BME280;10218;42.874;25.320;2023-02-28T09:21:29;98026.84;;;9.73;100.00
20115;BME280;10218;42.874;25.320;2023-02-28T09:23:56;98030.19;;;9.85;100.00
20115;BME280;10218;42.874;25.320;2023-02-28T09:26:25;98025.28;;;10.17;100.00
20115;BME280;10218;42.874;25.320;2023-02-28T09:28:54;98030.31;;;10.11;100.00
20115;BME280;10218;42.874;25.320;2023-02-28T09:31:25;98036.16;;;9.50;100.00
20115;BME280;10218;42.874;25.320;2023-02-28T09:33:54;98025.53;;;9.87;100.00
20115;BME280;10218;42.874;25.320;2023-02-28T09:36:23;98036.19;;;9.87;100.00
20115;BME280;10218;42.874;25.320;2023-02-28T09:39:00;98026.69;;;10.66;100.00
20115;BME280;10218;42.874;25.320;2023-02-28T09:41:37;98015.75;;;10.95;100.00
20115;BME280;10218;42.874;25.320;2023-02-28T09:44:11;98019.28;;;10.96;100.00
20115;BME280;10218;42.874;25.320;2023-02-28T09:46:44;98021.78;;;10.80;100.00
20115;BME280;10218;42.874;25.320;2023-02-28T09:49:20;98029.50;;;10.10;100.00
20115;BME280;10218;42.874;25.320;2023-02-28T09:52:01;98043.53;;;9.85;100.00
20115;BME280;10218;42.874;25.320;2023-02-28T09:54:31;98047.81;;;9.59;100.00
20115;BME280;10218;42.874;25.320;2023-02-28T10:05:43;98030.06;;;9.11;100.00
20115;BME280;10218;42.874;25.320;2023-02-28T10:08:21;98021.94;;;9.13;100.00
20115;BME280;10218;42.874;25.320;2023-02-28T10:10:58;98017.50;;;9.60;100.00
20115;BME280;10218;42.874;25.320;2023-02-28T10:13:34;98017.06;;;9.64;100.00
20115;BME280;10218;42.874;25.320;2023-02-28T10:16:08;98009.84;;;9.74;100.00
20115;BME280;10218;42.874;25.320;2023-02-28T10:18:50;98013.88;;;9.88;100.00
20115;BME280;10218;42.874;25.320;2023-02-28T10:21:34;98020.69;;;8.97;100.00
20115;BME280;10218;42.874;25.320;2023-02-28T10:24:21;98008.47;;;9.24;100.00
20115;BME280;10218;42.874;25.320;2023-02-28T10:26:52;98008.16;;;9.27;100.00
20115;BME280;10218;42.874;25.320;2023-02-28T10:29:23;98003.00;;;9.06;100.00
20115;BME280;10218;42.874;25.320;2023-02-28T10:31:51;98018.59;;;8.91;100.00
20115;BME280;10218;42.874;25.320;2023-02-28T10:34:17;98010.88;;;8.88;100.00
20115;BME280;10218;42.874;25.320;2023-02-28T10:36:45;98018.03;;;8.97;100.00
20115;BME280;10218;42.874;25.320;2023-02-28T10:39:38;98014.03;;;9.50;100.00
20115;BME280;10218;42.874;25.320;2023-02-28T10:42:28;98020.19;;;9.40;100.00
20115;BME280;10218;42.874;25.320;2023-02-28T10:45:10;98021.81;;;8.85;100.00
20115;BME280;10218;42.874;25.320;2023-02-28T10:48:02;98024.47;;;9.24;100.00
20115;BME280;10218;42.874;25.320;2023-02-28T10:56:25;98008.91;;;8.90;100.00
20115;BME280;10218;42.874;25.320;2023-02-28T10:58:56;98008.22;;;8.88;100.00
20115;BME280;10218;42.874;25.320;2023-02-28T11:04:01;97998.94;;;8.92;100.00
20115;BME280;10218;42.874;25.320;2023-02-28T11:06:31;97986.78;;;9.46;100.00
20115;BME280;10218;42.874;25.320;2023-02-28T11:09:18;97980.09;;;9.23;100.00
20115;BME280;10218;42.874;25.320;2023-02-28T11:11:49;97976.22;;;8.98;100.00
20115;BME280;10218;42.874;25.320;2023-02-28T11:14:40;97985.34;;;8.86;100.00
20115;BME280;10218;42.874;25.320;2023-02-28T11:17:20;97983.78;;;9.12;100.00
20115;BME280;10218;42.874;25.320;2023-02-28T11:19:52;97983.25;;;8.70;100.00
20115;BME280;10218;42.874;25.320;2023-02-28T11:22:28;97985.62;;;8.92;100.00
20115;BME280;10218;42.874;25.320;2023-02-28T11:24:59;97992.72;;;9.21;100.00
20115;BME280;10218;42.874;25.320;2023-02-28T11:30:34;97982.19;;;9.29;100.00
20115;BME280;10218;42.874;25.320;2023-02-28T11:33:26;97994.03;;;9.07;100.00
20115;BME280;10218;42.874;25.320;2023-02-28T11:36:02;97983.78;;;9.02;100.00
20115;BME280;10218;42.874;25.320;2023-02-28T11:38:32;97983.03;;;9.20;100.00
20115;BME280;10218;42.874;25.320;2023-02-28T12:12:00;97966.00;;;9.50;100.00
20115;BME280;10218;42.874;25.320;2023-02-28T12:17:48;97964.56;;;8.89;100.00
20115;BME280;10218;42.874;25.320;2023-02-28T12:20:35;97967.53;;;8.86;100.00
20115;BME280;10218;42.874;25.320;2023-02-28T12:29:02;97984.78;;;8.44;100.00
20115;BME280;10218;42.874;25.320;2023-02-28T12:31:36;97974.28;;;8.52;100.00
20115;BME280;10218;42.874;25.320;2023-02-28T12:34:15;97960.38;;;8.96;100.00
20115;BME280;10218;42.874;25.320;2023-02-28T12:36:45;97940.06;;;8.76;100.00
20115;BME280;10218;42.874;25.320;2023-02-28T12:39:31;97951.56;;;8.86;100.00
20115;BME280;10218;42.874;25.320;2023-02-28T12:42:22;97947.44;;;9.58;100.00
20115;BME280;10218;42.874;25.320;2023-02-28T12:44:55;97955.88;;;9.53;100.00
20115;BME280;10218;42.874;25.320;2023-02-28T12:47:24;97963.00;;;9.16;100.00
20115;BME280;10218;42.874;25.320;2023-02-28T12:49:58;97959.88;;;9.20;100.00
20115;BME280;10218;42.874;25.320;2023-02-28T12:55:38;97963.16;;;9.05;100.00
20115;BME280;10218;42.874;25.320;2023-02-28T13:09:00;97974.81;;;8.75;100.00
20115;BME280;10218;42.874;25.320;2023-02-28T13:11:52;97983.22;;;9.09;100.00
20115;BME280;10218;42.874;25.320;2023-02-28T13:14:30;97962.59;;;9.57;100.00
20115;BME280;10218;42.874;25.320;2023-02-28T13:19:57;97954.00;;;9.17;100.00
20115;BME280;10218;42.874;25.320;2023-02-28T13:24:54;97954.59;;;9.11;100.00
20115;BME280;10218;42.874;25.320;2023-02-28T13:29:52;97963.06;;;8.68;100.00
20115;BME280;10218;42.874;25.320;2023-02-28T13:40:32;97967.19;;;9.28;100.00
20115;BME280;10218;42.874;25.320;2023-02-28T13:43:08;97961.34;;;9.52;100.00
20115;BME280;10218;42.874;25.320;2023-02-28T13:45:35;97961.66;;;8.92;100.00
20115;BME280;10218;42.874;25.320;2023-02-28T13:48:17;97978.59;;;9.01;100.00
20115;BME280;10218;42.874;25.320;2023-02-28T13:50:45;97967.81;;;8.45;100.00
20115;BME280;10218;42.874;25.320;2023-02-28T13:58:17;97956.63;;;8.61;100.00
20115;BME280;10218;42.874;25.320;2023-02-28T14:03:36;97966.72;;;9.42;100.00
20115;BME280;10218;42.874;25.320;2023-02-28T14:06:28;97958.78;;;9.23;100.00
20115;BME280;10218;42.874;25.320;2023-02-28T14:09:03;97959.53;;;8.86;100.00
20115;BME280;10218;42.874;25.320;2023-02-28T14:11:37;97961.91;;;8.89;100.00
20115;BME280;10218;42.874;25.320;2023-02-28T14:14:06;97961.66;;;8.73;100.00
20115;BME280;10218;42.874;25.320;2023-02-28T14:16:46;97954.59;;;9.11;100.00
20115;BME280;10218;42.874;25.320;2023-02-28T14:19:34;97952.38;;;8.87;100.00
20115;BME280;10218;42.874;25.320;2023-02-28T14:30:24;97965.16;;;8.83;100.00
20115;BME280;10218;42.874;25.320;2023-02-28T14:38:32;97980.31;;;8.83;100.00
20115;BME280;10218;42.874;25.320;2023-02-28T14:41:04;97977.62;;;8.64;100.00
20115;BME280;10218;42.874;25.320;2023-02-28T14:43:55;97988.00;;;8.38;100.00
20115;BME280;10218;42.874;25.320;2023-02-28T14:46:25;97995.56;;;8.90;100.00
20115;BME280;10218;42.874;25.320;2023-02-28T14:48:54;97991.41;;;8.78;100.00
20115;BME280;10218;42.874;25.320;2023-02-28T14:51:23;97991.22;;;8.89;100.00
20115;BME280;10218;42.874;25.320;2023-02-28T14:53:59;97994.31;;;8.66;100.00
20115;BME280;10218;42.874;25.320;2023-02-28T14:56:35;97994.31;;;8.66;100.00
20115;BME280;10218;42.874;25.320;2023-02-28T14:59:05;97998.38;;;8.89;100.00
20115;BME280;10218;42.874;25.320;2023-02-28T15:01:32;97997.69;;;8.68;100.00
20115;BME280;10218;42.874;25.320;2023-02-28T15:04:03;98000.50;;;8.47;100.00
20115;BME280;10218;42.874;25.320;2023-02-28T15:06:32;98004.97;;;8.46;100.00
20115;BME280;10218;42.874;25.320;2023-02-28T15:09:13;98001.31;;;8.38;100.00
20115;BME280;10218;42.874;25.320;2023-02-28T15:11:40;98011.94;;;7.88;100.00
20115;BME280;10218;42.874;25.320;2023-02-28T15:14:15;98001.53;;;8.25;100.00
20115;BME280;10218;42.874;25.320;2023-02-28T15:16:44;98000.12;;;8.21;100.00
20115;BME280;10218;42.874;25.320;2023-02-28T15:19:24;97996.81;;;8.38;100.00
20115;BME280;10218;42.874;25.320;2023-02-28T15:22:06;97995.56;;;9.10;100.00
20115;BME280;10218;42.874;25.320;2023-02-28T15:24:41;97993.19;;;8.58;100.00
20115;BME280;10218;42.874;25.320;2023-02-28T15:27:21;97995.56;;;7.93;100.00
20115;BME280;10218;42.874;25.320;2023-02-28T15:29:55;97990.66;;;7.98;100.00